Orange Cove, CA (93646)

6:36 AM PDT on July 25, 2016 (GMT -0700)
GFES54 | | Change Station

Elev 407 ft 36.66 °N, 119.38 °W | Updated 5 minutes ago

Clear
Clear
62.7 °F
Feels Like 62.7 °F
N
0.0
Wind Variable Wind from East
Gusts 0.0 mph

Today
High -- | Low -- °F
--% Chance of Precip.
Yesterday
High -- | Low -- °F
Precip. -- in
Pressure 29.89 in
Visibility 10.0 miles
Clouds Clear
Dew Point 54 °F
Humidity 73%
Rainfall 0.00 in
Snow Depth Not available.
5:58 AM 8:08 PM
Waning Gibbous, 66% visible
METAR KVIS 251256Z AUTO 12004KT 10SM CLR 18/13 A2988 RMK AO2 SLP120 T01830133
Pressure 29.89 in
Visibility 10.0 miles
Clouds Clear
Dew Point 54 °F
Humidity 73%
Rainfall 0.00 in
Snow Depth Not available.
5:58 AM 8:08 PM
Waning Gibbous, 66% visible
METAR KVIS 251256Z AUTO 12004KT 10SM CLR 18/13 A2988 RMK AO2 SLP120 T01830133

10-Day Weather Forecast

Almanac

Astronomy

Jul. 25, 2016 Rise Set
Actual Time
Civil Twilight
Nautical Twilight
Astronomical Twilight
Moon
Length of Visible Light
Length of Day
Tomorrow will be .
, % of the Moon is Illuminated

Today's Extremes

State Highs State Lows

Community

WunderPhotos

Upload Photos

1,927,300 photos uploaded!

WunderBlog® & News

Nearby

Air Quality

  Air Quality AQ Index Pollutant
Not available.

Snow Depth

Station Depth Elevation

Earthquake Activity

City Distance Mag. Time & Date
Minimum magnitude displayed is 2.5.

Coastal Water Temperatures

Place Temperature

Stations

Nearby Weather Stations

Station Location Temp. Windchill Dew Point Humidity Wind Precip. Elev Updated Type
                   

Watches & Warnings

There are currently no watches in effect.